Time;durP1;ratioP1;P1;durP2;ratioP2;P2;SDS_P1;SDS_P2;PMS_P1;PMS_P2;Temp;Humidity;BMP_temperature;BMP_pressure;BME280_temperature;BME280_humidity;BME280_pressure;Samples;Min_cycle;Max_cycle;Signal;HPM_P1;HPM_P2
2023/01/05 00:01:48;;;;;;;0.33;0.33;;;;;;;;;;5033987;28;20192;-90
2023/01/05 00:04:16;;;;;;;0.30;0.30;;;;;;;;;;5034367;28;20694;-90
2023/01/05 00:06:50;;;;;;;0.87;0.60;;;;;;;;;;5033915;28;20208;-91
2023/01/05 00:09:20;;;;;;;0.90;0.90;;;;;;;;;;5034884;28;20274;-89
2023/01/05 00:22:48;;;;;;;1.30;1.27;;;;;;;;;;5000911;28;20208;-90
2023/01/05 00:25:20;;;;;;;1.97;1.03;;;;;;;;;;5032914;28;20598;-89
2023/01/05 00:27:52;;;;;;;1.50;1.43;;;;;;;;;;5032954;28;20203;-91
2023/01/05 00:30:24;;;;;;;2.27;2.17;;;;;;;;;;5033004;28;20218;-89
2023/01/05 00:32:52;;;;;;;2.13;2.03;;;;;;;;;;5033447;28;20204;-90
2023/01/05 00:35:21;;;;;;;1.27;0.97;;;;;;;;;;5032385;28;20231;-91
2023/01/05 00:37:49;;;;;;;1.70;0.83;;;;;;;;;;5032466;28;20287;-89
2023/01/05 00:40:21;;;;;;;0.70;0.70;;;;;;;;;;5033850;28;20219;-90
2023/01/05 00:42:55;;;;;;;2.33;0.93;;;;;;;;;;5032271;28;20232;-89
2023/01/05 00:45:25;;;;;;;1.53;1.47;;;;;;;;;;5033060;28;20670;-91
2023/01/05 00:47:54;;;;;;;1.10;1.10;;;;;;;;;;5033274;28;20278;-89
2023/01/05 00:50:25;;;;;;;1.30;0.83;;;;;;;;;;5041519;28;20233;-90
2023/01/05 00:52:53;;;;;;;0.63;0.63;;;;;;;;;;5054312;28;20192;-90
2023/01/05 00:55:21;;;;;;;5.60;1.50;;;;;;;;;;5049694;28;20211;-91
2023/01/05 00:57:53;;;;;;;0.97;0.97;;;;;;;;;;5054728;28;20224;-89
2023/01/05 01:00:22;;;;;;;0.30;0.30;;;;;;;;;;5054499;28;20210;-88
2023/01/05 01:02:52;;;;;;;1.17;1.17;;;;;;;;;;5055067;28;20239;-90
2023/01/05 01:05:20;;;;;;;0.93;0.93;;;;;;;;;;5054689;28;20210;-89
2023/01/05 01:07:48;;;;;;;1.43;0.87;;;;;;;;;;5054674;28;20202;-89
2023/01/05 01:10:17;;;;;;;0.90;0.90;;;;;;;;;;5039013;28;20223;-89
2023/01/05 01:12:48;;;;;;;1.20;0.70;;;;;;;;;;5043947;28;20658;-89
2023/01/05 01:15:16;;;;;;;1.30;1.30;;;;;;;;;;5042551;28;20196;-91
2023/01/05 01:17:58;;;;;;;0.83;0.77;;;;;;;;;;5041271;28;20633;-89
2023/01/05 01:20:26;;;;;;;0.77;0.77;;;;;;;;;;5039783;28;20717;-87
2023/01/05 01:22:55;;;;;;;1.23;1.23;;;;;;;;;;5040918;28;20196;-89
2023/01/05 01:25:23;;;;;;;1.90;1.43;;;;;;;;;;5040410;28;20594;-89
2023/01/05 01:27:51;;;;;;;1.43;1.30;;;;;;;;;;5040142;28;20207;-89
2023/01/05 01:30:19;;;;;;;0.87;0.87;;;;;;;;;;5037767;28;20274;-88
2023/01/05 01:32:51;;;;;;;1.17;0.57;;;;;;;;;;5038554;28;20318;-91
2023/01/05 01:35:22;;;;;;;0.87;0.87;;;;;;;;;;5048034;28;20203;-89
2023/01/05 01:37:50;;;;;;;1.10;1.00;;;;;;;;;;5043862;28;20222;-88
2023/01/05 01:40:19;;;;;;;1.60;1.30;;;;;;;;;;5038611;28;20204;-90
2023/01/05 01:42:51;;;;;;;1.83;1.73;;;;;;;;;;5037771;28;20220;-90
2023/01/05 01:45:22;;;;;;;1.90;0.97;;;;;;;;;;5038291;28;20200;-89
2023/01/05 01:47:53;;;;;;;1.50;1.40;;;;;;;;;;5037983;28;20228;-91
2023/01/05 01:50:24;;;;;;;0.30;0.30;;;;;;;;;;5049580;28;20218;-89
2023/01/05 01:52:52;;;;;;;0.73;0.73;;;;;;;;;;5047773;28;20188;-90
2023/01/05 01:55:22;;;;;;;0.20;0.20;;;;;;;;;;5046223;28;20255;-89
2023/01/05 01:57:51;;;;;;;2.50;0.80;;;;;;;;;;5048383;28;20228;-89
2023/01/05 02:00:20;;;;;;;0.57;0.57;;;;;;;;;;5039129;28;20207;-90
2023/01/05 02:02:48;;;;;;;1.00;1.00;;;;;;;;;;5036714;28;20219;-91
2023/01/05 02:05:21;;;;;;;1.57;1.27;;;;;;;;;;5036575;28;20203;-89
2023/01/05 02:07:50;;;;;;;1.70;1.37;;;;;;;;;;5038725;28;20212;-89
2023/01/05 02:10:26;;;;;;;1.87;1.27;;;;;;;;;;5037120;28;20250;-90
2023/01/05 02:13:04;;;;;;;1.60;1.33;;;;;;;;;;5035463;28;20279;-90
2023/01/05 02:15:39;;;;;;;0.23;0.23;;;;;;;;;;5035493;28;20208;-87
2023/01/05 02:18:15;;;;;;;0.93;0.60;;;;;;;;;;5034759;28;20192;-89
2023/01/05 02:20:54;;;;;;;0.53;0.53;;;;;;;;;;4995403;28;20193;-89
2023/01/05 02:23:40;;;;;;;1.13;0.73;;;;;;;;;;4997115;28;20647;-90
2023/01/05 02:26:39;;;;;;;0.20;0.20;;;;;;;;;;4996420;28;20242;-89
2023/01/05 02:29:19;;;;;;;0.70;0.70;;;;;;;;;;4995775;28;20197;-90
2023/01/05 02:31:54;;;;;;;0.40;0.40;;;;;;;;;;4996227;28;20752;-89
2023/01/05 02:34:29;;;;;;;1.37;0.33;;;;;;;;;;4996278;28;20626;-90
2023/01/05 02:37:00;;;;;;;0.40;0.40;;;;;;;;;;4997372;28;20295;-91
2023/01/05 02:39:31;;;;;;;0.70;0.67;;;;;;;;;;4997439;28;20209;-91
2023/01/05 02:42:05;;;;;;;0.63;0.63;;;;;;;;;;5004193;28;20641;-90
2023/01/05 02:44:34;;;;;;;3.17;0.83;;;;;;;;;;4997096;28;20536;-90
2023/01/05 02:47:07;;;;;;;0.77;0.50;;;;;;;;;;4997366;28;20216;-89
2023/01/05 02:49:37;;;;;;;1.27;0.97;;;;;;;;;;5006925;28;20208;-88
2023/01/05 02:52:08;;;;;;;0.53;0.53;;;;;;;;;;5016219;28;20205;-89
2023/01/05 02:54:43;;;;;;;0.73;0.73;;;;;;;;;;5022402;28;20212;-88
2023/01/05 02:57:15;;;;;;;0.87;0.87;;;;;;;;;;5033726;28;20235;-87
2023/01/05 02:59:45;;;;;;;0.93;0.93;;;;;;;;;;5041843;28;20192;-88
2023/01/05 03:02:22;;;;;;;1.13;0.57;;;;;;;;;;5038334;28;20200;-90
2023/01/05 03:04:52;;;;;;;0.30;0.30;;;;;;;;;;5034338;28;20313;-91
2023/01/05 03:07:25;;;;;;;0.40;0.40;;;;;;;;;;5034732;28;20200;-91
2023/01/05 03:09:55;;;;;;;0.20;0.20;;;;;;;;;;5016841;28;20223;-89
2023/01/05 03:15:17;;;;;;;0.03;0.03;;;;;;;;;;5035692;28;20234;-90
2023/01/05 03:17:50;;;;;;;0.93;0.90;;;;;;;;;;5034288;28;20234;-90
2023/01/05 03:20:18;;;;;;;0.87;0.87;;;;;;;;;;5032905;28;20692;-91
2023/01/05 03:36:46;;;;;;;0.13;0.13;;;;;;;;;;5034511;28;20223;-88
2023/01/05 03:39:18;;;;;;;1.33;0.93;;;;;;;;;;5035305;28;20202;-90
2023/01/05 03:41:46;;;;;;;0.60;0.60;;;;;;;;;;5037885;28;20203;-89
2023/01/05 03:44:14;;;;;;;0.53;0.53;;;;;;;;;;5046410;28;20223;-90
2023/01/05 03:46:45;;;;;;;1.53;0.87;;;;;;;;;;5036448;28;20210;-89
2023/01/05 03:49:21;;;;;;;0.87;0.87;;;;;;;;;;5035075;28;20207;-90
2023/01/05 03:51:49;;;;;;;0.33;0.27;;;;;;;;;;5035130;28;20665;-89
2023/01/05 03:54:16;;;;;;;1.50;0.83;;;;;;;;;;5035392;28;20560;-90
2023/01/05 03:56:45;;;;;;;0.60;0.60;;;;;;;;;;5034667;28;20244;-90
2023/01/05 03:59:12;;;;;;;0.60;0.60;;;;;;;;;;5033715;28;20200;-90
2023/01/05 04:01:45;;;;;;;1.07;1.07;;;;;;;;;;5034795;28;20677;-89
2023/01/05 04:04:14;;;;;;;0.57;0.57;;;;;;;;;;5034566;28;20200;-88
2023/01/05 04:06:43;;;;;;;1.07;0.63;;;;;;;;;;5035780;28;20200;-89
2023/01/05 04:09:11;;;;;;;2.50;0.80;;;;;;;;;;5044981;28;20220;-89
2023/01/05 04:11:39;;;;;;;0.80;0.80;;;;;;;;;;5043659;28;20581;-89
2023/01/05 04:14:06;;;;;;;2.87;1.10;;;;;;;;;;5036122;28;20196;-88
2023/01/05 04:16:34;;;;;;;0.47;0.47;;;;;;;;;;5034117;28;20236;-89
2023/01/05 04:19:03;;;;;;;0.93;0.70;;;;;;;;;;5032216;28;20216;-90
2023/01/05 04:21:32;;;;;;;0.33;0.33;;;;;;;;;;5033898;28;20254;-90
2023/01/05 04:24:03;;;;;;;1.10;1.10;;;;;;;;;;5034578;28;20575;-89
2023/01/05 04:26:31;;;;;;;0.37;0.37;;;;;;;;;;5035178;28;20274;-90
2023/01/05 04:28:59;;;;;;;0.63;0.63;;;;;;;;;;5040388;28;20303;-90
2023/01/05 04:31:26;;;;;;;1.00;1.00;;;;;;;;;;5038502;28;20630;-90
2023/01/05 04:33:57;;;;;;;0.77;0.77;;;;;;;;;;5035616;28;20283;-89
2023/01/05 04:36:25;;;;;;;0.90;0.90;;;;;;;;;;5035001;28;20215;-91
2023/01/05 04:38:57;;;;;;;0.43;0.43;;;;;;;;;;5034266;28;20192;-89
2023/01/05 04:41:26;;;;;;;0.60;0.60;;;;;;;;;;5038814;28;20215;-91
2023/01/05 04:43:54;;;;;;;0.83;0.83;;;;;;;;;;5039909;28;20207;-87
2023/01/05 04:46:22;;;;;;;0.37;0.37;;;;;;;;;;5040370;28;20192;-88
2023/01/05 04:48:49;;;;;;;1.07;1.07;;;;;;;;;;5041703;28;20665;-88
2023/01/05 04:51:18;;;;;;;1.20;1.20;;;;;;;;;;5045996;28;20286;-89
2023/01/05 04:53:46;;;;;;;0.63;0.63;;;;;;;;;;5043200;28;20605;-89
2023/01/05 04:56:15;;;;;;;0.50;0.50;;;;;;;;;;5040784;28;20250;-91
2023/01/05 04:58:47;;;;;;;1.63;1.53;;;;;;;;;;5032499;28;20209;-88
2023/01/05 05:01:16;;;;;;;0.67;0.30;;;;;;;;;;5035269;28;20287;-88
2023/01/05 05:03:42;;;;;;;1.30;1.13;;;;;;;;;;5033083;28;20184;-91
2023/01/05 05:06:11;;;;;;;0.80;0.80;;;;;;;;;;5055756;28;20192;-88
2023/01/05 05:08:39;;;;;;;1.87;1.77;;;;;;;;;;5041903;28;20234;-90
2023/01/05 05:11:09;;;;;;;0.50;0.50;;;;;;;;;;5025798;28;20275;-90
2023/01/05 05:13:38;;;;;;;1.40;0.80;;;;;;;;;;5027233;28;20199;-90
2023/01/05 05:16:06;;;;;;;2.57;1.23;;;;;;;;;;5028836;28;20198;-87
2023/01/05 05:18:34;;;;;;;0.40;0.40;;;;;;;;;;5023416;28;20805;-89
2023/01/05 05:21:05;;;;;;;2.30;1.30;;;;;;;;;;5023158;28;20197;-89
2023/01/05 05:23:34;;;;;;;0.30;0.30;;;;;;;;;;5024293;28;20215;-89
2023/01/05 05:26:25;;;;;;;1.73;1.63;;;;;;;;;;5017225;28;20205;-91
2023/01/05 05:28:55;;;;;;;0.77;0.77;;;;;;;;;;5024900;28;20196;-89
2023/01/05 05:31:22;;;;;;;1.00;1.00;;;;;;;;;;5036252;28;20199;-89
2023/01/05 05:33:52;;;;;;;0.63;0.63;;;;;;;;;;5033547;28;20289;-88
2023/01/05 05:36:22;;;;;;;0.93;0.93;;;;;;;;;;5042534;28;20214;-90
2023/01/05 05:38:51;;;;;;;1.23;1.10;;;;;;;;;;5042372;28;20295;-89
2023/01/05 05:41:20;;;;;;;1.07;1.07;;;;;;;;;;5043553;28;20242;-89
2023/01/05 05:43:48;;;;;;;0.77;0.77;;;;;;;;;;5037568;28;20218;-89
2023/01/05 05:46:19;;;;;;;2.27;0.50;;;;;;;;;;5036115;28;20207;-90
2023/01/05 05:48:47;;;;;;;1.77;0.90;;;;;;;;;;5031220;28;20252;-87
2023/01/05 05:51:18;;;;;;;2.80;1.90;;;;;;;;;;5017559;28;20213;-89
2023/01/05 05:53:46;;;;;;;3.00;0.97;;;;;;;;;;5016564;28;20201;-89
2023/01/05 05:56:16;;;;;;;1.77;1.67;;;;;;;;;;5020689;28;20253;-89
2023/01/05 05:58:45;;;;;;;1.50;0.97;;;;;;;;;;5036016;28;20251;-90
2023/01/05 06:01:14;;;;;;;0.57;0.57;;;;;;;;;;5036886;28;20196;-89
2023/01/05 06:03:43;;;;;;;3.43;1.53;;;;;;;;;;5049476;28;20272;-89
2023/01/05 06:06:11;;;;;;;2.13;1.87;;;;;;;;;;5038704;28;20677;-89
2023/01/05 06:08:40;;;;;;;1.13;1.03;;;;;;;;;;5035366;28;20211;-91
2023/01/05 06:11:08;;;;;;;1.07;0.80;;;;;;;;;;5035450;28;20204;-89
2023/01/05 06:13:39;;;;;;;1.57;1.47;;;;;;;;;;5017286;28;20264;-90
2023/01/05 06:16:09;;;;;;;0.63;0.63;;;;;;;;;;5035681;28;20196;-89
2023/01/05 06:18:36;;;;;;;3.03;1.20;;;;;;;;;;5036257;28;20244;-89
2023/01/05 06:21:06;;;;;;;3.20;2.53;;;;;;;;;;5035837;28;20200;-90
2023/01/05 06:23:33;;;;;;;1.77;1.63;;;;;;;;;;5034039;28;20224;-89
2023/01/05 06:26:01;;;;;;;3.20;1.53;;;;;;;;;;5034984;28;20195;-89
2023/01/05 06:28:31;;;;;;;1.40;1.30;;;;;;;;;;5038115;28;20226;-87
2023/01/05 06:31:01;;;;;;;1.73;1.43;;;;;;;;;;5037264;28;20258;-89
2023/01/05 06:33:29;;;;;;;0.77;0.77;;;;;;;;;;5034872;28;20203;-89
2023/01/05 06:35:59;;;;;;;0.60;0.60;;;;;;;;;;5035969;28;20199;-89
2023/01/05 06:38:37;;;;;;;0.53;0.53;;;;;;;;;;5035545;28;20306;-90
2023/01/05 06:41:05;;;;;;;0.47;0.47;;;;;;;;;;5036494;28;20210;-88
2023/01/05 06:43:34;;;;;;;0.73;0.73;;;;;;;;;;5036619;28;20200;-91
2023/01/05 06:48:47;;;;;;;1.90;1.53;;;;;;;;;;5064341;22;20276;-91
2023/01/05 06:51:15;;;;;;;1.50;1.30;;;;;;;;;;5055930;28;20842;-90
2023/01/05 06:53:46;;;;;;;1.70;1.60;;;;;;;;;;5055176;28;20206;-90
2023/01/05 06:56:15;;;;;;;1.20;1.20;;;;;;;;;;5054890;28;20776;-90
2023/01/05 06:58:43;;;;;;;1.33;1.33;;;;;;;;;;5054335;28;20219;-89
2023/01/05 07:01:11;;;;;;;1.03;1.03;;;;;;;;;;5054455;28;20226;-89
2023/01/05 07:03:39;;;;;;;1.03;1.00;;;;;;;;;;5055245;28;20199;-89
2023/01/05 07:06:07;;;;;;;1.27;1.27;;;;;;;;;;5054610;28;20207;-89
2023/01/05 07:08:38;;;;;;;3.33;1.53;;;;;;;;;;5051719;28;20680;-88
2023/01/05 07:11:08;;;;;;;1.00;0.90;;;;;;;;;;5034776;28;20218;-91
2023/01/05 07:13:40;;;;;;;2.70;1.97;;;;;;;;;;5035003;28;20334;-89
2023/01/05 07:16:15;;;;;;;1.73;1.63;;;;;;;;;;5034230;28;20581;-89
2023/01/05 07:18:47;;;;;;;2.00;1.13;;;;;;;;;;5032950;28;20223;-90
2023/01/05 07:21:18;;;;;;;2.80;0.60;;;;;;;;;;5033645;28;20246;-89
2023/01/05 07:23:47;;;;;;;0.83;0.43;;;;;;;;;;5036741;28;20274;-88
2023/01/05 07:26:30;;;;;;;1.60;1.30;;;;;;;;;;5033858;28;20389;-89
2023/01/05 07:29:01;;;;;;;1.83;1.30;;;;;;;;;;5033013;28;20223;-89
2023/01/05 07:31:30;;;;;;;1.33;0.93;;;;;;;;;;5032814;28;20239;-90
2023/01/05 07:33:57;;;;;;;0.63;0.63;;;;;;;;;;5034846;28;20204;-90
2023/01/05 07:36:26;;;;;;;1.40;1.30;;;;;;;;;;5035324;28;20208;-88
2023/01/05 07:39:03;;;;;;;1.43;0.83;;;;;;;;;;5053603;28;20220;-89
2023/01/05 07:41:49;;;;;;;2.77;0.87;;;;;;;;;;5055930;28;20195;-89
2023/01/05 07:44:19;;;;;;;1.33;1.33;;;;;;;;;;5049979;28;20636;-88
2023/01/05 07:46:51;;;;;;;2.00;1.30;;;;;;;;;;5035661;28;20246;-89
2023/01/05 07:49:21;;;;;;;2.23;2.10;;;;;;;;;;5036764;28;20219;-90
2023/01/05 07:51:49;;;;;;;0.93;0.93;;;;;;;;;;5042213;28;20235;-90
2023/01/05 07:54:25;;;;;;;8.53;2.10;;;;;;;;;;5040771;28;20668;-90
2023/01/05 07:56:56;;;;;;;0.80;0.80;;;;;;;;;;5037931;28;20202;-89
2023/01/05 07:59:36;;;;;;;1.33;1.27;;;;;;;;;;5036143;28;20259;-91
2023/01/05 08:02:04;;;;;;;1.43;1.43;;;;;;;;;;5036193;28;20232;-89
2023/01/05 08:04:32;;;;;;;1.73;1.63;;;;;;;;;;5037293;28;20206;-91
2023/01/05 08:07:01;;;;;;;1.20;1.17;;;;;;;;;;5036570;28;20672;-90
2023/01/05 08:12:17;;;;;;;0.70;0.70;;;;;;;;;;5049912;28;20231;-88
2023/01/05 08:14:47;;;;;;;0.80;0.80;;;;;;;;;;5038767;28;20199;-90
2023/01/05 08:17:15;;;;;;;0.77;0.77;;;;;;;;;;5034796;28;20253;-91
2023/01/05 08:19:46;;;;;;;0.97;0.97;;;;;;;;;;5040691;28;20202;-90
2023/01/05 08:22:17;;;;;;;1.60;1.50;;;;;;;;;;5044972;28;20187;-90
2023/01/05 08:24:51;;;;;;;2.53;2.33;;;;;;;;;;5045409;28;20194;-88
2023/01/05 08:27:18;;;;;;;1.97;1.87;;;;;;;;;;5053207;28;20192;-89
2023/01/05 08:29:51;;;;;;;0.90;0.90;;;;;;;;;;5054438;28;20272;-91
2023/01/05 08:32:25;;;;;;;3.10;1.07;;;;;;;;;;5042890;28;20200;-91
2023/01/05 08:34:53;;;;;;;1.20;1.13;;;;;;;;;;5040078;28;20196;-89
2023/01/05 08:37:20;;;;;;;1.97;1.87;;;;;;;;;;5040403;28;20197;-89
2023/01/05 08:39:47;;;;;;;2.37;2.17;;;;;;;;;;5040406;28;20207;-90
2023/01/05 08:42:15;;;;;;;3.83;1.00;;;;;;;;;;5039860;28;20199;-89
2023/01/05 08:44:48;;;;;;;1.30;1.20;;;;;;;;;;5039006;28;20224;-89
2023/01/05 08:47:18;;;;;;;2.70;1.67;;;;;;;;;;5040699;28;20695;-89
2023/01/05 08:49:48;;;;;;;4.90;1.00;;;;;;;;;;5039559;28;20215;-90
2023/01/05 08:52:17;;;;;;;0.97;0.97;;;;;;;;;;5040065;28;20230;-89
2023/01/05 08:54:47;;;;;;;3.20;0.97;;;;;;;;;;5040539;28;20192;-90
2023/01/05 08:57:17;;;;;;;3.03;0.93;;;;;;;;;;5041566;28;20265;-89
2023/01/05 08:59:46;;;;;;;12.37;1.13;;;;;;;;;;5041486;28;20224;-91
2023/01/05 09:02:17;;;;;;;2.53;2.13;;;;;;;;;;5040984;28;20209;-90
2023/01/05 09:04:53;;;;;;;3.93;2.50;;;;;;;;;;5039763;28;20294;-91
2023/01/05 09:07:23;;;;;;;1.90;1.03;;;;;;;;;;5043254;28;20262;-89
2023/01/05 09:09:53;;;;;;;0.90;0.90;;;;;;;;;;5040908;28;20216;-91
2023/01/05 09:12:22;;;;;;;1.47;1.20;;;;;;;;;;5039677;28;20203;-91
2023/01/05 09:14:49;;;;;;;1.80;1.70;;;;;;;;;;5039665;28;20283;-91
2023/01/05 09:17:24;;;;;;;2.13;2.10;;;;;;;;;;5038123;28;20271;-89
2023/01/05 09:20:03;;;;;;;0.87;0.87;;;;;;;;;;5038452;28;20234;-92
2023/01/05 09:22:34;;;;;;;0.90;0.90;;;;;;;;;;5039071;28;20204;-90
2023/01/05 09:25:03;;;;;;;6.60;0.87;;;;;;;;;;5038306;28;20214;-90
2023/01/05 09:27:50;;;;;;;1.30;0.60;;;;;;;;;;5041129;28;20266;-89
2023/01/05 09:30:19;;;;;;;0.70;0.70;;;;;;;;;;5017605;28;20212;-90
2023/01/05 09:32:50;;;;;;;2.63;1.63;;;;;;;;;;5017764;28;20227;-91
2023/01/05 09:35:23;;;;;;;0.87;0.73;;;;;;;;;;5016923;28;20275;-90
2023/01/05 09:37:51;;;;;;;0.37;0.37;;;;;;;;;;5017906;28;20203;-89
2023/01/05 09:40:19;;;;;;;1.40;1.30;;;;;;;;;;5019824;28;20272;-90
2023/01/05 09:42:48;;;;;;;0.87;0.47;;;;;;;;;;5017928;28;20226;-91
2023/01/05 09:45:17;;;;;;;6.47;2.60;;;;;;;;;;5016987;28;20208;-90
2023/01/05 09:47:46;;;;;;;1.70;1.30;;;;;;;;;;5016549;28;20306;-88
2023/01/05 09:50:19;;;;;;;0.83;0.83;;;;;;;;;;5033488;28;20212;-89
2023/01/05 09:52:50;;;;;;;2.10;1.90;;;;;;;;;;5028552;28;20762;-91
2023/01/05 09:55:24;;;;;;;0.50;0.43;;;;;;;;;;5016786;28;20210;-90
2023/01/05 10:00:38;;;;;;;1.50;0.60;;;;;;;;;;5021961;28;20264;-88
2023/01/05 10:03:11;;;;;;;1.07;0.97;;;;;;;;;;5020170;28;20297;-87
2023/01/05 10:05:40;;;;;;;2.57;2.30;;;;;;;;;;5020484;28;20191;-89
2023/01/05 10:08:19;;;;;;;1.40;0.70;;;;;;;;;;5015773;28;20198;-89
2023/01/05 10:13:01;;;;;;;1.20;1.20;;;;;;;;;;5016317;28;20204;-89
2023/01/05 10:13:35;;;;;;;1.33;1.23;;;;;;;;;;5016735;28;20659;-88
2023/01/05 10:16:04;;;;;;;2.53;0.97;;;;;;;;;;5016497;28;20242;-90
2023/01/05 10:18:33;;;;;;;1.70;0.57;;;;;;;;;;5021206;28;20258;-89
2023/01/05 10:21:07;;;;;;;0.43;0.43;;;;;;;;;;5029825;28;20196;-91
2023/01/05 10:23:55;;;;;;;0.50;0.50;;;;;;;;;;5022537;28;20207;-91
2023/01/05 10:26:25;;;;;;;0.40;0.40;;;;;;;;;;5017710;28;20228;-89
2023/01/05 10:28:58;;;;;;;0.97;0.97;;;;;;;;;;5016944;28;20227;-91
2023/01/05 10:31:31;;;;;;;0.67;0.67;;;;;;;;;;5017000;28;20216;-90
2023/01/05 10:34:02;;;;;;;0.60;0.40;;;;;;;;;;5016045;28;20197;-91
2023/01/05 10:36:35;;;;;;;0.60;0.60;;;;;;;;;;5017165;28;20217;-90
2023/01/05 10:39:10;;;;;;;1.50;0.60;;;;;;;;;;5016874;28;20238;-88
2023/01/05 10:41:41;;;;;;;0.87;0.70;;;;;;;;;;5015466;28;20194;-90
2023/01/05 10:44:25;;;;;;;0.80;0.80;;;;;;;;;;5017404;28;20278;-89
2023/01/05 10:46:54;;;;;;;0.57;0.57;;;;;;;;;;5018234;28;20237;-89
2023/01/05 10:49:23;;;;;;;1.73;0.80;;;;;;;;;;5027125;28;20212;-89
2023/01/05 10:51:52;;;;;;;0.83;0.83;;;;;;;;;;5029653;28;20205;-90
2023/01/05 10:54:41;;;;;;;1.40;0.50;;;;;;;;;;5017405;28;20251;-91
2023/01/05 10:57:24;;;;;;;0.33;0.33;;;;;;;;;;5016308;28;20206;-89
2023/01/05 11:00:02;;;;;;;0.47;0.47;;;;;;;;;;5002792;28;20246;-90
2023/01/05 11:02:32;;;;;;;0.93;0.93;;;;;;;;;;5017240;28;20208;-90
2023/01/05 11:05:12;;;;;;;0.63;0.50;;;;;;;;;;5016037;28;20754;-89
2023/01/05 11:07:46;;;;;;;1.20;1.20;;;;;;;;;;5016920;28;20225;-90
2023/01/05 11:10:24;;;;;;;1.50;1.30;;;;;;;;;;5016920;28;20217;-91
2023/01/05 11:12:53;;;;;;;0.80;0.80;;;;;;;;;;5015556;28;20200;-90
2023/01/05 11:15:21;;;;;;;0.77;0.77;;;;;;;;;;5023533;28;20212;-89
2023/01/05 11:17:53;;;;;;;1.38;1.27;;;;;;;;;;5028501;28;20210;-90
2023/01/05 11:20:24;;;;;;;0.30;0.30;;;;;;;;;;5034713;28;20235;-89
2023/01/05 11:22:53;;;;;;;0.93;0.60;;;;;;;;;;5031657;28;20242;-89
2023/01/05 11:25:26;;;;;;;0.70;0.70;;;;;;;;;;5017691;28;20235;-90
2023/01/05 11:31:04;;;;;;;0.52;0.52;;;;;;;;;;4975892;28;20686;-89
2023/01/05 11:33:33;;;;;;;3.10;1.08;;;;;;;;;;5013602;28;20199;-90
2023/01/05 11:36:04;;;;;;;2.60;1.13;;;;;;;;;;5013637;28;20270;-88
2023/01/05 11:38:36;;;;;;;0.80;0.80;;;;;;;;;;5014149;28;20213;-88
2023/01/05 11:41:36;;;;;;;0.63;0.63;;;;;;;;;;5016633;28;20213;-89
2023/01/05 11:44:07;;;;;;;0.57;0.57;;;;;;;;;;5019175;28;20211;-90
2023/01/05 11:46:41;;;;;;;0.17;0.17;;;;;;;;;;5017618;28;20200;-91
2023/01/05 11:49:09;;;;;;;1.70;1.50;;;;;;;;;;5015768;28;20646;-89
2023/01/05 11:51:40;;;;;;;0.93;0.80;;;;;;;;;;5015106;28;20197;-89
2023/01/05 11:54:26;;;;;;;0.93;0.93;;;;;;;;;;5015415;28;20765;-89
2023/01/05 11:57:08;;;;;;;1.37;0.57;;;;;;;;;;5016232;28;20203;-89
2023/01/05 11:59:43;;;;;;;1.27;1.27;;;;;;;;;;5016754;28;20640;-89
2023/01/05 12:02:29;;;;;;;2.47;0.50;;;;;;;;;;5016129;28;20263;-89
2023/01/05 12:05:15;;;;;;;1.80;1.00;;;;;;;;;;5017235;28;20207;-88
2023/01/05 12:07:52;;;;;;;0.80;0.80;;;;;;;;;;5016476;28;20208;-89
2023/01/05 12:10:39;;;;;;;0.80;0.80;;;;;;;;;;5016901;28;20240;-88
2023/01/05 12:13:09;;;;;;;1.60;0.50;;;;;;;;;;5009297;28;20215;-90
2023/01/05 12:15:53;;;;;;;0.80;0.80;;;;;;;;;;5025325;28;20208;-90
2023/01/05 12:18:26;;;;;;;1.07;0.80;;;;;;;;;;5023028;28;20219;-89
2023/01/05 12:20:59;;;;;;;2.33;2.13;;;;;;;;;;5024995;28;20203;-89
2023/01/05 12:23:36;;;;;;;0.23;0.23;;;;;;;;;;5025669;28;20253;-88
2023/01/05 12:26:12;;;;;;;1.03;0.83;;;;;;;;;;5025803;28;20199;-88
2023/01/05 12:28:58;;;;;;;0.10;0.10;;;;;;;;;;5025351;28;20240;-89
2023/01/05 12:31:39;;;;;;;0.60;0.60;;;;;;;;;;5025267;28;20207;-89
2023/01/05 12:34:16;;;;;;;0.33;0.33;;;;;;;;;;5028504;28;20203;-87
2023/01/05 12:36:59;;;;;;;0.80;0.80;;;;;;;;;;5030840;28;20201;-89
2023/01/05 12:39:56;;;;;;;1.23;1.23;;;;;;;;;;5028504;28;20284;-89
2023/01/05 12:42:30;;;;;;;0.83;0.80;;;;;;;;;;4954568;28;20262;-89
2023/01/05 12:45:09;;;;;;;0.50;0.50;;;;;;;;;;5022379;28;20196;-89
2023/01/05 12:47:57;;;;;;;1.87;1.30;;;;;;;;;;5018209;28;20586;-89
2023/01/05 12:50:41;;;;;;;2.57;1.60;;;;;;;;;;5024200;28;20638;-88
2023/01/05 12:53:18;;;;;;;0.93;0.50;;;;;;;;;;5024591;28;20210;-90
2023/01/05 12:58:53;;;;;;;0.33;0.33;;;;;;;;;;5018593;28;20199;-89
2023/01/05 13:01:29;;;;;;;0.57;0.57;;;;;;;;;;5024903;28;20231;-88
2023/01/05 13:04:06;;;;;;;0.30;0.30;;;;;;;;;;5024398;28;20201;-89
2023/01/05 13:06:41;;;;;;;0.40;0.40;;;;;;;;;;5037427;28;20239;-89
2023/01/05 13:09:13;;;;;;;0.87;0.87;;;;;;;;;;5037248;28;20718;-88
2023/01/05 13:11:48;;;;;;;1.60;0.90;;;;;;;;;;5038834;28;20224;-88
2023/01/05 13:14:18;;;;;;;0.77;0.77;;;;;;;;;;5037149;28;20240;-90
2023/01/05 13:17:05;;;;;;;;;;;;;;;;;;;;;
2023/01/05 13:19:39;;;;;;;1.13;1.03;;;;;;;;;;5040237;28;20238;-88
2023/01/05 13:22:11;;;;;;;0.50;0.50;;;;;;;;;;5053035;28;20248;-88
2023/01/05 13:24:45;;;;;;;0.77;0.77;;;;;;;;;;5034400;28;20273;-90
2023/01/05 13:40:00;;;;;;;1.40;0.93;;;;;;;;;;4987872;28;20244;-90
2023/01/05 13:42:54;;;;;;;0.87;0.83;;;;;;;;;;4985267;28;20228;-87
2023/01/05 13:45:40;;;;;;;1.70;0.73;;;;;;;;;;5029631;28;20224;-92
2023/01/05 13:48:25;;;;;;;0.37;0.37;;;;;;;;;;5012489;28;20336;-92
2023/01/05 13:51:27;;;;;;;2.00;0.93;;;;;;;;;;5018607;28;20220;-91
2023/01/05 13:54:38;;;;;;;0.20;0.20;;;;;;;;;;5017775;28;20686;-90
2023/01/05 13:57:08;;;;;;;0.60;0.60;;;;;;;;;;4938096;29;20223;-88
2023/01/05 13:59:56;;;;;;;1.37;1.33;;;;;;;;;;5007882;28;20253;-90
2023/01/05 14:02:30;;;;;;;0.93;0.63;;;;;;;;;;5017239;28;20858;-90
2023/01/05 14:05:11;;;;;;;0.20;0.20;;;;;;;;;;5018565;28;20231;-87
2023/01/05 14:07:40;;;;;;;1.60;0.80;;;;;;;;;;5025076;28;20331;-88
2023/01/05 14:10:21;;;;;;;0.20;0.20;;;;;;;;;;5021309;28;20233;-89
2023/01/05 14:12:52;;;;;;;1.60;1.50;;;;;;;;;;5019043;28;20228;-90
2023/01/05 14:15:40;;;;;;;0.57;0.53;;;;;;;;;;5017000;28;20617;-91
2023/01/05 14:18:15;;;;;;;0.30;0.30;;;;;;;;;;5015492;28;20229;-89
2023/01/05 14:20:47;;;;;;;0.63;0.63;;;;;;;;;;5014242;28;20251;-90
2023/01/05 14:23:34;;;;;;;1.77;1.70;;;;;;;;;;5017645;28;20668;-90
2023/01/05 14:26:06;;;;;;;1.23;1.23;;;;;;;;;;5015157;28;20671;-88
2023/01/05 14:28:54;;;;;;;0.60;0.60;;;;;;;;;;5016186;28;20229;-89
2023/01/05 14:31:43;;;;;;;3.40;1.90;;;;;;;;;;5015458;28;20672;-89
2023/01/05 14:37:21;;;;;;;3.40;0.87;;;;;;;;;;5014316;28;20251;-88
2023/01/05 14:39:52;;;;;;;1.47;0.80;;;;;;;;;;5018031;28;20247;-89
2023/01/05 14:42:25;;;;;;;2.23;0.77;;;;;;;;;;5035032;28;20234;-88
2023/01/05 14:44:59;;;;;;;0.60;0.60;;;;;;;;;;5017367;28;20236;-90
2023/01/05 14:47:40;;;;;;;0.30;0.30;;;;;;;;;;5021718;28;20242;-89
2023/01/05 14:50:27;;;;;;;1.30;0.93;;;;;;;;;;5036347;28;20231;-90
2023/01/05 14:53:05;;;;;;;0.33;0.33;;;;;;;;;;5038098;28;20226;-91
2023/01/05 14:55:34;;;;;;;1.10;0.83;;;;;;;;;;5035174;28;20216;-90
2023/01/05 14:58:03;;;;;;;0.40;0.40;;;;;;;;;;5035568;28;20235;-90
2023/01/05 15:00:46;;;;;;;0.87;0.87;;;;;;;;;;5030466;28;20250;-90
2023/01/05 15:03:18;;;;;;;2.40;1.27;;;;;;;;;;5034529;28;20722;-90
2023/01/05 15:05:49;;;;;;;5.77;0.80;;;;;;;;;;5035238;28;20226;-90
2023/01/05 15:11:26;;;;;;;1.00;0.93;;;;;;;;;;5059590;22;20238;-91
2023/01/05 15:17:03;;;;;;;0.50;0.50;;;;;;;;;;5054263;28;20230;-91
2023/01/05 15:19:50;;;;;;;1.70;1.60;;;;;;;;;;5054727;28;20223;-91
2023/01/05 15:22:34;;;;;;;1.40;0.37;;;;;;;;;;5054095;28;20584;-90
2023/01/05 15:25:19;;;;;;;2.10;1.47;;;;;;;;;;5055181;28;20229;-90
2023/01/05 15:27:58;;;;;;;4.73;2.40;;;;;;;;;;5053916;28;20246;-90
2023/01/05 15:30:38;;;;;;;2.23;0.90;;;;;;;;;;5055262;28;20295;-90
2023/01/05 15:33:11;;;;;;;0.83;0.83;;;;;;;;;;5055681;28;20228;-88
2023/01/05 15:35:42;;;;;;;0.93;0.80;;;;;;;;;;5054457;28;20226;-90
2023/01/05 15:38:26;;;;;;;2.27;1.17;;;;;;;;;;5057093;28;20291;-90
2023/01/05 15:44:05;;;;;;;2.13;2.00;;;;;;;;;;5055012;23;20258;-91
2023/01/05 15:46:37;;;;;;;3.80;1.97;;;;;;;;;;5055312;28;20497;-89
2023/01/05 15:49:06;;;;;;;1.03;1.03;;;;;;;;;;5055737;28;20317;-89
2023/01/05 15:51:39;;;;;;;2.13;1.93;;;;;;;;;;5054209;28;20581;-89
2023/01/05 15:54:08;;;;;;;4.53;1.53;;;;;;;;;;5056465;28;20568;-90
2023/01/05 15:56:38;;;;;;;10.63;2.97;;;;;;;;;;5054735;28;20211;-89
2023/01/05 15:59:21;;;;;;;5.07;3.50;;;;;;;;;;5055361;28;20307;-89
2023/01/05 16:01:51;;;;;;;1.00;1.00;;;;;;;;;;5054619;28;20309;-89
2023/01/05 16:04:19;;;;;;;3.70;2.17;;;;;;;;;;5055193;28;20312;-91
2023/01/05 16:06:50;;;;;;;2.23;2.13;;;;;;;;;;5053856;28;20241;-88
2023/01/05 16:09:21;;;;;;;0.90;0.90;;;;;;;;;;5045972;28;20250;-90
2023/01/05 16:11:51;;;;;;;1.20;1.20;;;;;;;;;;5033994;28;20291;-90
2023/01/05 16:14:23;;;;;;;0.70;0.70;;;;;;;;;;5033546;28;20655;-91
2023/01/05 16:16:53;;;;;;;1.03;1.03;;;;;;;;;;5033225;28;20314;-90
2023/01/05 16:19:24;;;;;;;3.53;2.33;;;;;;;;;;5032951;28;20318;-91
2023/01/05 16:21:57;;;;;;;2.27;2.17;;;;;;;;;;5032713;28;20235;-90
2023/01/05 16:24:38;;;;;;;3.33;1.20;;;;;;;;;;5036306;28;20227;-90